Etihad Airways Virtual Airport Information Service

Muscat International Airport

ICAO: OOMS Country: Oman
Latitude: 23.5933 Longitude: 58.2844
Latest Arrival : ETDJUMP (OMAA-OOMS) Latest Departure : ETD381 (OOMS-OMAA)


WX CaptureLIVE
Data provided by noaa.gov | Recorded at 21:51:50

METAR : OOMS 192050Z 00000KT CAVOK 28/17 Q1002 NOSIG

TAF : OOMS 191700Z 1918/2024 24005KT 8000 NSC BECMG 2006/2008 35012KT BECMG 2015/2017 VRB02KT


Runway Data for OOMS
Data provided by openaviationdata.com

Runway ID Mag Var Hdg Length Elevation Surface ILS Freq ILS Id ILS Slope

Muscat International Airport, Oman
Use only for reference purposes